Portada
METAR-TAF:

METAR-TAF

Aeropuertos :

Vladivostok, Rusia

Aeropuerto Internacional de Vladivostok

latitud: 43-07N, longitud: 131-56E, altitud: 184 m

Observación

El informe se hizo hace 16 minutos, a las 20:30 UTC
Viento 2 kt del noroeste
Temperatura 18°C
Humedad 73%
Presión 1005 hPa
Visibilidad 10 km o más

METAR: UHWW 242030Z 32001MPS 9999 NSC 18/13 Q1005 R25L/0///70 NOSIG RMK QFE752

Hora: 06:46 (20:46 UTC)

Pronóstico

El informe se hizo hace 46 minutos, a las 20:00 UTC
Pronóstico válido del 24 a las 21 UTC al 25 a las 21 UTC
Viento 6 kt del norte-noroeste
Visibilidad 10 km o más
Nubes dispersas a una altura de 3000 ft
Evolucionando progresivamente
del 25 a las 10 UTC al 25 a las 12 UTC
Visibilidad: 5000 m
Nubes dispersas a una altura de 700 ft
neblina

TAF: UHWW 242000Z 2421/2521 34003MPS 9999 SCT030 BECMG 2510/2512 5000 BR SCT007

Observaciones y pronósticos meteorológicos de más de 4000 aeropuertos (mensajes METAR y TAF).

Los puntos amarillos y rojos representan las estaciones disponibles.

Ponga el ratón en el punto deseado para ver el nombre de la estación.

Haga clic para ver las observaciones y los pronósticos meteorológicos.

Para cambiar el mapa : haga clic en los botones verdes con una cruz de color negro para hacer un zoom, en el botón verde con un guión para alejar o en las flechas verdes para mapas adyacentes.


METAR-TAF: